Time;durP1;ratioP1;P1;durP2;ratioP2;P2;SDS_P1;SDS_P2;PMS_P1;PMS_P2;Temp;Humidity;BMP_temperature;BMP_pressure;BME280_temperature;BME280_humidity;BME280_pressure;Samples;Min_cycle;Max_cycle;Signal;HPM_P1;HPM_P2
2022/01/29 00:00:51;;;;;;;0.30;0.30;;;1.00;97.20;;;;;;5036223;28;20582;-71
2022/01/29 00:03:17;;;;;;;0.40;0.40;;;0.90;97.00;;;;;;5036130;28;20191;-70
2022/01/29 00:05:43;;;;;;;0.37;0.37;;;0.90;97.10;;;;;;5036100;28;20904;-71
2022/01/29 00:08:09;;;;;;;0.40;0.40;;;0.90;96.80;;;;;;5036584;28;20175;-70
2022/01/29 00:10:34;;;;;;;0.50;0.50;;;0.80;96.60;;;;;;5035927;28;20175;-71
2022/01/29 00:13:00;;;;;;;0.30;0.30;;;0.80;96.60;;;;;;5034719;28;20203;-71
2022/01/29 00:15:26;;;;;;;0.40;0.40;;;0.60;96.70;;;;;;5036364;28;20402;-71
2022/01/29 00:17:51;;;;;;;0.40;0.40;;;0.50;96.80;;;;;;5036131;28;20163;-71
2022/01/29 00:20:17;;;;;;;0.50;0.50;;;0.50;97.10;;;;;;5035805;28;20170;-71
2022/01/29 00:22:43;;;;;;;0.40;0.40;;;0.50;97.20;;;;;;5035920;28;20743;-70
2022/01/29 00:25:09;;;;;;;0.40;0.40;;;0.60;97.20;;;;;;5035803;28;20546;-71
2022/01/29 00:27:36;;;;;;;0.40;0.40;;;0.60;97.10;;;;;;5035842;28;20238;-71
2022/01/29 00:30:08;;;;;;;0.40;0.40;;;0.60;97.10;;;;;;5035561;28;20515;-71
2022/01/29 00:32:35;;;;;;;0.40;0.40;;;0.60;97.10;;;;;;5035578;28;20175;-71
2022/01/29 00:35:01;;;;;;;0.40;0.40;;;0.50;97.20;;;;;;5035438;28;20185;-70
2022/01/29 00:37:26;;;;;;;0.30;0.30;;;0.50;97.10;;;;;;5035635;28;20178;-71
2022/01/29 00:39:52;;;;;;;0.30;0.30;;;0.50;97.10;;;;;;5035133;28;20175;-71
2022/01/29 00:42:18;;;;;;;0.37;0.37;;;0.50;97.10;;;;;;5035276;28;20181;-71
2022/01/29 00:44:45;;;;;;;0.30;0.30;;;0.50;97.10;;;;;;5035207;28;20191;-71
2022/01/29 00:47:11;;;;;;;0.40;0.40;;;0.50;97.00;;;;;;5035389;28;20629;-70
2022/01/29 00:49:37;;;;;;;0.40;0.40;;;0.40;97.20;;;;;;5035321;28;20636;-71
2022/01/29 00:52:03;;;;;;;0.40;0.40;;;0.40;96.80;;;;;;5035433;28;20224;-71
2022/01/29 00:54:29;;;;;;;0.40;0.40;;;0.40;96.90;;;;;;5035255;28;20605;-71
2022/01/29 00:56:55;;;;;;;0.30;0.30;;;0.30;96.90;;;;;;5035642;28;20163;-70
2022/01/29 00:59:20;;;;;;;0.40;0.40;;;0.30;96.90;;;;;;5034980;28;20163;-71
2022/01/29 01:01:46;;;;;;;0.33;0.33;;;0.20;97.00;;;;;;5035154;28;20539;-71
2022/01/29 01:04:11;;;;;;;0.40;0.40;;;0.20;97.10;;;;;;5034197;28;20218;-71
2022/01/29 01:06:37;;;;;;;0.40;0.40;;;0.10;97.20;;;;;;5034946;28;20612;-71
2022/01/29 01:09:03;;;;;;;0.40;0.40;;;0.10;97.20;;;;;;5034865;28;20178;-71
2022/01/29 01:11:28;;;;;;;0.30;0.30;;;0.10;97.30;;;;;;5034862;28;20171;-71
2022/01/29 01:13:54;;;;;;;0.40;0.40;;;0.10;97.20;;;;;;5034716;28;20205;-71
2022/01/29 01:16:20;;;;;;;0.40;0.40;;;0.10;97.30;;;;;;5034809;28;20177;-71
2022/01/29 01:18:45;;;;;;;0.33;0.33;;;0.00;97.10;;;;;;5034730;28;20202;-71
2022/01/29 01:21:11;;;;;;;0.30;0.30;;;0.00;97.10;;;;;;5034907;28;20489;-71
2022/01/29 01:23:37;;;;;;;0.40;0.40;;;-0.10;97.00;;;;;;5034763;28;20197;-70
2022/01/29 01:26:04;;;;;;;0.40;0.40;;;-0.10;96.90;;;;;;5034620;28;20532;-71
2022/01/29 01:28:30;;;;;;;0.40;0.40;;;-0.10;96.90;;;;;;5034616;28;20178;-71
2022/01/29 01:30:55;;;;;;;0.40;0.40;;;-0.10;96.90;;;;;;5034536;28;20179;-71
2022/01/29 01:33:21;;;;;;;0.40;0.40;;;-0.10;96.90;;;;;;5034202;28;20210;-70
2022/01/29 01:35:51;;;;;;;0.40;0.40;;;-0.10;96.90;;;;;;5034537;28;20151;-71
2022/01/29 01:38:24;;;;;;;0.52;0.52;;;-0.20;96.90;;;;;;5034444;28;20181;-71
2022/01/29 01:40:58;;;;;;;0.30;0.30;;;-0.20;96.90;;;;;;5034404;28;20174;-70
2022/01/29 01:43:24;;;;;;;0.30;0.30;;;-0.20;97.00;;;;;;5034604;28;20194;-70
2022/01/29 01:45:50;;;;;;;0.40;0.40;;;-0.20;96.90;;;;;;5032973;28;20648;-71
2022/01/29 01:48:15;;;;;;;0.40;0.40;;;-0.20;96.80;;;;;;5034218;28;20625;-71
2022/01/29 01:50:41;;;;;;;0.40;0.40;;;-0.30;96.40;;;;;;5033024;28;20418;-70
2022/01/29 01:53:08;;;;;;;0.40;0.40;;;-0.40;96.70;;;;;;5034316;28;20285;-71
2022/01/29 01:55:33;;;;;;;0.40;0.40;;;-0.40;97.10;;;;;;5034128;28;20178;-71
2022/01/29 01:58:00;;;;;;;0.40;0.40;;;-0.20;97.40;;;;;;5034097;28;20586;-71
2022/01/29 02:00:27;;;;;;;0.40;0.40;;;-0.10;97.50;;;;;;5033919;28;20493;-71
2022/01/29 02:02:53;;;;;;;0.38;0.38;;;0.10;97.50;;;;;;5034029;28;20194;-71
2022/01/29 02:05:19;;;;;;;0.40;0.40;;;0.20;97.20;;;;;;5033887;28;20178;-71
2022/01/29 02:07:46;;;;;;;0.40;0.40;;;0.30;96.90;;;;;;5035021;28;20592;-70
2022/01/29 02:10:12;;;;;;;0.40;0.40;;;0.10;96.40;;;;;;5033746;28;20496;-71
2022/01/29 02:13:05;;;;;;;0.30;0.30;;;0.10;96.70;;;;;;5033679;28;20182;-70
2022/01/29 02:15:31;;;;;;;0.30;0.30;;;0.20;97.00;;;;;;5032642;28;20550;-71
2022/01/29 02:17:57;;;;;;;0.43;0.43;;;0.40;97.20;;;;;;5033634;28;20173;-71
2022/01/29 02:20:26;;;;;;;0.40;0.40;;;0.50;97.10;;;;;;5033585;28;20569;-71
2022/01/29 02:22:52;;;;;;;0.40;0.40;;;0.70;96.60;;;;;;5033809;28;20583;-71
2022/01/29 02:25:28;;;;;;;0.40;0.40;;;0.80;96.60;;;;;;5033633;28;20182;-71
2022/01/29 02:27:55;;;;;;;0.40;0.40;;;0.90;96.30;;;;;;5033531;28;20762;-71
2022/01/29 02:30:21;;;;;;;0.50;0.50;;;1.00;96.20;;;;;;5033514;28;20175;-71
2022/01/29 02:32:47;;;;;;;0.40;0.40;;;1.10;95.90;;;;;;5033434;28;20701;-71
2022/01/29 02:35:12;;;;;;;0.30;0.30;;;1.10;95.70;;;;;;5033422;28;20422;-71
2022/01/29 02:37:39;;;;;;;0.40;0.40;;;1.10;95.50;;;;;;5033551;28;20411;-71
2022/01/29 02:40:05;;;;;;;0.30;0.30;;;1.20;95.50;;;;;;5033438;28;20217;-71
2022/01/29 02:42:31;;;;;;;0.32;0.32;;;1.30;95.30;;;;;;5033493;28;20178;-71
2022/01/29 02:44:57;;;;;;;0.30;0.30;;;1.40;95.20;;;;;;5033355;28;20267;-71
2022/01/29 02:47:33;;;;;;;0.40;0.40;;;1.40;95.00;;;;;;5033404;28;20707;-71
2022/01/29 02:49:59;;;;;;;0.40;0.40;;;1.40;94.90;;;;;;5033318;28;20166;-71
2022/01/29 02:52:24;;;;;;;0.30;0.30;;;1.40;94.80;;;;;;5033245;28;20658;-71
2022/01/29 02:54:50;;;;;;;0.30;0.30;;;1.50;95.20;;;;;;5033329;28;20162;-71
2022/01/29 02:57:15;;;;;;;0.30;0.30;;;1.40;94.90;;;;;;5033489;28;20167;-71
2022/01/29 02:59:41;;;;;;;0.30;0.30;;;1.50;95.10;;;;;;5033066;28;20646;-71
2022/01/29 03:02:07;;;;;;;0.30;0.30;;;1.50;94.90;;;;;;5033251;28;20173;-71
2022/01/29 03:04:33;;;;;;;0.30;0.30;;;1.60;94.80;;;;;;5033304;28;20190;-71
2022/01/29 03:06:58;;;;;;;0.30;0.30;;;1.60;94.50;;;;;;5033309;28;20582;-71
2022/01/29 03:09:24;;;;;;;0.30;0.30;;;1.60;94.40;;;;;;5032948;28;20175;-71
2022/01/29 03:11:50;;;;;;;0.30;0.30;;;1.60;94.30;;;;;;5033366;28;20171;-71
2022/01/29 03:14:15;;;;;;;0.30;0.30;;;1.60;94.30;;;;;;5033164;28;20203;-71
2022/01/29 03:16:41;;;;;;;0.30;0.30;;;1.60;94.30;;;;;;5033120;28;20756;-71
2022/01/29 03:19:07;;;;;;;0.30;0.30;;;1.70;94.40;;;;;;5032941;28;20167;-71
2022/01/29 03:21:32;;;;;;;0.30;0.30;;;1.60;94.50;;;;;;5033166;28;20687;-71
2022/01/29 03:23:58;;;;;;;0.30;0.30;;;1.50;95.00;;;;;;5033056;28;20574;-71
2022/01/29 03:26:24;;;;;;;0.40;0.40;;;1.50;95.30;;;;;;5033803;28;20643;-71
2022/01/29 03:28:49;;;;;;;0.30;0.30;;;1.60;95.30;;;;;;5036795;28;20203;-71
2022/01/29 03:31:15;;;;;;;0.30;0.30;;;1.60;94.90;;;;;;5036828;28;20207;-71
2022/01/29 03:33:41;;;;;;;0.30;0.30;;;1.60;94.40;;;;;;5036458;28;20285;-71
2022/01/29 03:36:06;;;;;;;0.30;0.30;;;1.70;94.40;;;;;;5036924;28;20171;-71
2022/01/29 03:38:32;;;;;;;0.30;0.30;;;1.70;94.30;;;;;;5036694;28;20250;-71
2022/01/29 03:40:59;;;;;;;0.30;0.30;;;1.70;94.10;;;;;;5036691;28;20196;-71
2022/01/29 03:43:34;;;;;;;0.40;0.40;;;1.70;94.10;;;;;;5036558;28;20191;-71
2022/01/29 03:46:00;;;;;;;0.30;0.30;;;1.70;94.00;;;;;;5036605;28;20175;-71
2022/01/29 03:48:25;;;;;;;0.30;0.30;;;1.60;94.10;;;;;;5036207;28;20183;-71
2022/01/29 03:50:51;;;;;;;0.30;0.30;;;1.60;94.10;;;;;;5036366;28;20198;-71
2022/01/29 03:53:17;;;;;;;0.40;0.40;;;1.60;94.20;;;;;;5036316;28;20211;-71
2022/01/29 03:55:42;;;;;;;0.30;0.30;;;1.60;94.40;;;;;;5036182;28;20163;-71
2022/01/29 03:58:08;;;;;;;0.40;0.40;;;1.60;94.40;;;;;;5036361;28;20179;-71
2022/01/29 04:00:34;;;;;;;0.40;0.40;;;1.70;94.40;;;;;;5036248;28;20167;-71
2022/01/29 04:03:00;;;;;;;0.30;0.30;;;1.70;94.30;;;;;;5036161;28;20202;-71
2022/01/29 04:05:26;;;;;;;0.30;0.30;;;1.70;94.30;;;;;;5036247;28;20406;-71
2022/01/29 04:07:52;;;;;;;0.30;0.30;;;1.80;94.30;;;;;;5036288;28;20170;-71
2022/01/29 04:10:19;;;;;;;0.30;0.30;;;1.70;94.20;;;;;;5034792;28;20180;-71
2022/01/29 04:12:49;;;;;;;0.35;0.35;;;1.70;94.20;;;;;;5036054;28;20450;-70
2022/01/29 04:15:14;;;;;;;0.40;0.40;;;1.70;94.30;;;;;;5036185;28;20199;-71
2022/01/29 04:17:40;;;;;;;0.30;0.30;;;1.60;94.70;;;;;;5035966;28;20203;-71
2022/01/29 04:20:06;;;;;;;0.40;0.40;;;1.70;94.50;;;;;;5035849;28;20203;-71
2022/01/29 04:22:32;;;;;;;0.30;0.30;;;1.80;94.50;;;;;;5034722;28;20172;-71
2022/01/29 04:24:57;;;;;;;0.37;0.37;;;1.80;94.50;;;;;;5035717;28;20174;-71
2022/01/29 04:27:33;;;;;;;0.37;0.37;;;1.80;94.40;;;;;;5035696;28;20175;-71
2022/01/29 04:30:01;;;;;;;0.30;0.30;;;1.70;94.40;;;;;;5035670;28;20228;-71
2022/01/29 04:32:56;;;;;;;0.40;0.40;;;1.70;94.40;;;;;;5035511;28;20171;-71
2022/01/29 04:35:13;;;;;;;0.40;0.40;;;1.70;94.50;;;;;;5035306;28;20191;-71
2022/01/29 04:37:38;;;;;;;0.30;0.30;;;1.80;94.50;;;;;;5033687;28;20171;-71
2022/01/29 04:40:05;;;;;;;0.30;0.30;;;1.80;94.50;;;;;;5035155;28;20667;-71
2022/01/29 04:42:31;;;;;;;0.38;0.38;;;1.80;94.40;;;;;;5035423;28;20180;-71
2022/01/29 04:44:57;;;;;;;0.30;0.30;;;1.70;94.20;;;;;;5035566;28;20270;-71
2022/01/29 04:47:22;;;;;;;0.40;0.40;;;1.70;94.40;;;;;;5035545;28;20406;-71
2022/01/29 04:49:48;;;;;;;0.30;0.30;;;1.70;94.50;;;;;;5035236;28;20591;-71
2022/01/29 04:52:14;;;;;;;0.30;0.30;;;1.70;94.50;;;;;;5035458;28;20172;-71
2022/01/29 04:54:39;;;;;;;0.40;0.40;;;1.70;94.50;;;;;;5035105;28;20234;-71
2022/01/29 04:57:05;;;;;;;0.40;0.40;;;1.60;94.70;;;;;;5034008;28;20179;-71
2022/01/29 04:59:31;;;;;;;0.40;0.40;;;1.60;95.00;;;;;;5034929;28;20164;-71
2022/01/29 05:01:57;;;;;;;0.30;0.30;;;1.60;95.00;;;;;;5035209;28;20182;-71
2022/01/29 05:04:22;;;;;;;0.40;0.40;;;1.40;95.00;;;;;;5035156;28;20425;-71
2022/01/29 05:06:48;;;;;;;0.30;0.30;;;1.50;95.10;;;;;;5035002;28;20246;-71
2022/01/29 05:09:14;;;;;;;0.30;0.30;;;1.40;95.10;;;;;;5034836;28;20193;-71
2022/01/29 05:11:43;;;;;;;0.30;0.30;;;1.50;95.30;;;;;;5034842;28;20236;-71
2022/01/29 05:14:16;;;;;;;0.40;0.40;;;1.40;95.30;;;;;;5034734;28;20190;-71
2022/01/29 05:25:36;;;;;;;0.40;0.40;;;1.40;95.60;;;;;;5035108;28;20198;-71
2022/01/29 05:27:52;;;;;;;0.38;0.38;;;1.50;95.90;;;;;;5035101;28;20177;-71
2022/01/29 05:30:17;;;;;;;0.40;0.40;;;1.60;96.10;;;;;;5034488;28;20265;-71
2022/01/29 05:32:43;;;;;;;0.30;0.30;;;1.60;95.80;;;;;;5033205;28;20171;-71
2022/01/29 05:35:09;;;;;;;0.30;0.30;;;1.70;96.10;;;;;;5033236;28;20194;-71
2022/01/29 05:37:34;;;;;;;0.40;0.40;;;1.70;95.70;;;;;;5034576;28;20500;-71
2022/01/29 05:40:00;;;;;;;0.40;0.40;;;1.80;95.70;;;;;;5034159;28;20178;-71
2022/01/29 05:42:26;;;;;;;0.30;0.30;;;1.70;95.50;;;;;;5034198;28;20183;-71
2022/01/29 05:44:51;;;;;;;0.40;0.40;;;1.70;95.70;;;;;;5034286;28;20207;-71
2022/01/29 05:47:17;;;;;;;0.30;0.30;;;1.80;95.80;;;;;;5034323;28;20179;-71
2022/01/29 05:49:42;;;;;;;0.30;0.30;;;1.80;95.60;;;;;;5033634;28;20198;-71
2022/01/29 05:52:08;;;;;;;0.40;0.40;;;1.80;95.30;;;;;;5034152;28;20312;-71
2022/01/29 05:54:33;;;;;;;0.30;0.30;;;1.70;95.60;;;;;;5033893;28;20207;-71
2022/01/29 05:56:59;;;;;;;0.30;0.30;;;1.80;95.70;;;;;;5034101;28;20184;-71
2022/01/29 05:59:25;;;;;;;0.30;0.30;;;1.80;95.30;;;;;;5033925;28;20182;-71
2022/01/29 06:01:50;;;;;;;0.40;0.40;;;1.90;95.30;;;;;;5034099;28;20236;-71
2022/01/29 06:04:16;;;;;;;0.30;0.30;;;1.90;95.20;;;;;;5033880;28;20303;-71
2022/01/29 06:06:42;;;;;;;0.33;0.33;;;1.90;95.10;;;;;;5034099;28;20622;-71
2022/01/29 06:09:07;;;;;;;0.30;0.30;;;1.80;95.00;;;;;;5033763;28;20182;-71
2022/01/29 06:11:34;;;;;;;0.30;0.30;;;1.90;95.30;;;;;;5034051;28;20187;-71
2022/01/29 06:14:00;;;;;;;0.30;0.30;;;1.90;95.30;;;;;;5033650;28;20254;-71
2022/01/29 06:16:26;;;;;;;0.30;0.30;;;2.00;95.30;;;;;;5033841;28;20196;-71
2022/01/29 06:18:52;;;;;;;0.30;0.30;;;2.10;95.10;;;;;;5033759;28;20163;-71
2022/01/29 06:21:18;;;;;;;0.40;0.40;;;1.80;95.00;;;;;;5033841;28;20781;-71
2022/01/29 06:23:44;;;;;;;0.30;0.30;;;1.80;95.30;;;;;;5033665;28;20183;-71
2022/01/29 06:26:11;;;;;;;0.30;0.30;;;1.80;95.30;;;;;;5033763;28;20434;-71
2022/01/29 06:28:37;;;;;;;0.32;0.32;;;1.90;95.40;;;;;;5033456;28;20187;-71
2022/01/29 06:31:04;;;;;;;0.30;0.30;;;2.00;95.30;;;;;;5033771;28;20207;-71
2022/01/29 06:33:30;;;;;;;0.38;0.38;;;2.00;95.10;;;;;;5033362;28;20678;-71
2022/01/29 06:35:56;;;;;;;0.40;0.40;;;1.70;95.30;;;;;;5033666;28;20181;-71
2022/01/29 06:38:22;;;;;;;0.40;0.40;;;1.90;95.50;;;;;;5033535;28;20254;-71
2022/01/29 06:40:48;;;;;;;0.30;0.30;;;1.90;95.40;;;;;;5033421;28;20584;-71
2022/01/29 06:43:14;;;;;;;0.30;0.30;;;1.90;95.50;;;;;;5033578;28;20199;-71
2022/01/29 06:45:42;;;;;;;0.30;0.30;;;2.00;95.30;;;;;;5033380;28;20182;-71
2022/01/29 06:48:09;;;;;;;0.30;0.30;;;2.10;95.10;;;;;;5033623;28;20521;-71
2022/01/29 06:50:35;;;;;;;0.30;0.30;;;2.20;95.10;;;;;;5032176;28;20183;-71
2022/01/29 06:53:01;;;;;;;0.40;0.40;;;2.20;94.80;;;;;;5033339;28;20196;-71
2022/01/29 06:55:27;;;;;;;0.50;0.50;;;2.30;94.70;;;;;;5033754;28;20562;-71
2022/01/29 06:57:52;;;;;;;0.30;0.30;;;2.30;94.50;;;;;;5033728;28;20676;-71
2022/01/29 07:00:18;;;;;;;0.30;0.30;;;2.30;94.40;;;;;;5033209;28;20242;-71
2022/01/29 07:02:44;;;;;;;0.30;0.30;;;2.30;94.30;;;;;;5036384;28;20528;-71
2022/01/29 07:05:11;;;;;;;0.35;0.35;;;2.40;94.20;;;;;;5035983;28;21003;-71
2022/01/29 07:07:37;;;;;;;0.30;0.30;;;2.50;94.20;;;;;;5037431;28;20588;-71
2022/01/29 07:10:04;;;;;;;0.40;0.40;;;2.50;94.00;;;;;;5037075;28;20286;-71
2022/01/29 07:12:30;;;;;;;0.32;0.32;;;2.60;93.90;;;;;;5036991;28;20168;-72
2022/01/29 07:14:56;;;;;;;0.60;0.60;;;2.60;93.80;;;;;;5037127;28;20760;-71
2022/01/29 07:17:24;;;;;;;0.30;0.30;;;2.60;93.60;;;;;;5037225;28;20437;-71
2022/01/29 07:19:52;;;;;;;0.30;0.30;;;2.50;93.70;;;;;;5036902;28;20172;-70
2022/01/29 07:22:18;;;;;;;0.30;0.30;;;2.50;94.10;;;;;;5037178;28;20190;-70
2022/01/29 07:24:44;;;;;;;0.40;0.40;;;2.50;94.60;;;;;;5036872;28;20195;-71
2022/01/29 07:27:09;;;;;;;0.30;0.30;;;2.60;94.10;;;;;;5036795;28;20190;-71
2022/01/29 07:29:35;;;;;;;0.30;0.30;;;2.70;93.80;;;;;;5036865;28;20247;-70
2022/01/29 07:32:02;;;;;;;0.30;0.30;;;2.60;93.80;;;;;;5037017;28;20465;-71
2022/01/29 07:34:28;;;;;;;0.30;0.30;;;2.30;93.80;;;;;;5035181;28;20474;-71
2022/01/29 07:36:55;;;;;;;0.40;0.40;;;2.40;94.00;;;;;;5036689;28;20255;-70
2022/01/29 07:39:22;;;;;;;0.35;0.35;;;2.50;93.90;;;;;;5035296;28;20168;-71
2022/01/29 07:41:48;;;;;;;0.30;0.30;;;2.60;93.50;;;;;;5036578;28;20179;-71
2022/01/29 07:44:14;;;;;;;0.33;0.33;;;2.80;93.10;;;;;;5036526;28;20192;-71
2022/01/29 07:46:41;;;;;;;0.30;0.30;;;2.90;92.30;;;;;;5036461;28;20411;-71
2022/01/29 07:49:06;;;;;;;0.40;0.40;;;2.70;91.00;;;;;;5036294;28;20518;-71
2022/01/29 07:51:32;;;;;;;0.30;0.30;;;2.80;91.00;;;;;;5036335;28;20169;-71
2022/01/29 07:53:58;;;;;;;0.30;0.30;;;3.10;90.60;;;;;;5035074;28;20201;-73
2022/01/29 07:56:24;;;;;;;0.30;0.30;;;3.30;90.60;;;;;;5036455;28;20515;-70
2022/01/29 07:58:51;;;;;;;0.30;0.30;;;3.50;88.50;;;;;;5036313;28;20774;-71
2022/01/29 08:01:17;;;;;;;0.30;0.30;;;3.80;88.60;;;;;;5036344;28;20406;-70
2022/01/29 08:03:46;;;;;;;0.32;0.32;;;3.90;84.90;;;;;;5036229;28;20195;-70
2022/01/29 08:06:13;;;;;;;0.40;0.40;;;3.90;84.10;;;;;;5036306;28;20550;-70
2022/01/29 08:08:38;;;;;;;0.40;0.40;;;3.40;83.00;;;;;;5036138;28;20179;-75
2022/01/29 08:11:04;;;;;;;0.40;0.40;;;3.60;84.60;;;;;;5035613;28;20172;-70
2022/01/29 08:13:30;;;;;;;0.30;0.30;;;3.80;83.70;;;;;;5035890;28;20199;-71
2022/01/29 08:15:56;;;;;;;0.33;0.33;;;4.00;83.20;;;;;;5036145;28;20223;-71
2022/01/29 08:18:22;;;;;;;0.40;0.40;;;4.30;82.30;;;;;;5034930;28;20167;-71
2022/01/29 08:20:48;;;;;;;0.40;0.40;;;4.50;81.30;;;;;;5035626;28;20664;-71
2022/01/29 08:23:14;;;;;;;0.40;0.40;;;4.80;81.00;;;;;;5035846;28;20199;-71
2022/01/29 08:25:40;;;;;;;0.40;0.40;;;4.90;80.40;;;;;;5035070;28;20186;-68
2022/01/29 08:28:06;;;;;;;0.40;0.40;;;5.10;80.00;;;;;;5036291;28;20175;-71
2022/01/29 08:30:33;;;;;;;0.40;0.40;;;5.20;79.60;;;;;;5036242;28;20235;-71
2022/01/29 08:33:00;;;;;;;0.40;0.40;;;5.40;80.30;;;;;;5036160;28;20255;-72
2022/01/29 08:35:27;;;;;;;0.38;0.38;;;5.50;78.10;;;;;;5035716;28;20218;-72
2022/01/29 08:37:57;;;;;;;0.30;0.30;;;5.50;77.00;;;;;;5036002;28;20198;-69
2022/01/29 08:40:23;;;;;;;0.30;0.30;;;5.60;76.10;;;;;;5035881;28;20167;-74
2022/01/29 08:42:49;;;;;;;0.40;0.40;;;5.70;75.60;;;;;;5035491;28;20667;-72
2022/01/29 08:45:15;;;;;;;0.40;0.40;;;5.80;75.20;;;;;;5035074;28;20171;-71
2022/01/29 08:47:41;;;;;;;0.30;0.30;;;5.90;75.10;;;;;;5035848;28;20421;-70
2022/01/29 08:50:10;;;;;;;0.35;0.35;;;5.90;75.10;;;;;;5035367;28;20178;-72
2022/01/29 08:52:37;;;;;;;0.40;0.40;;;5.90;75.00;;;;;;5035244;28;20202;-72
2022/01/29 08:55:04;;;;;;;0.40;0.40;;;5.90;75.60;;;;;;5035306;28;20241;-70
2022/01/29 08:57:29;;;;;;;0.30;0.30;;;6.00;75.50;;;;;;5034799;28;20250;-72
2022/01/29 08:59:55;;;;;;;0.40;0.40;;;6.00;73.30;;;;;;5032605;28;20254;-72
2022/01/29 09:02:20;;;;;;;0.40;0.40;;;5.90;72.80;;;;;;5033673;28;20633;-72
2022/01/29 09:04:46;;;;;;;0.40;0.40;;;5.90;72.70;;;;;;5034076;28;20273;-69
2022/01/29 09:07:12;;;;;;;0.37;0.37;;;6.00;72.20;;;;;;5034053;28;20488;-70
2022/01/29 09:09:43;;;;;;;0.40;0.40;;;5.60;72.10;;;;;;5031177;28;20217;-74
2022/01/29 09:12:09;;;;;;;0.40;0.40;;;5.40;73.50;;;;;;5033985;28;20290;-72
2022/01/29 09:14:35;;;;;;;0.40;0.40;;;5.50;74.70;;;;;;5033279;28;20203;-72
2022/01/29 09:17:00;;;;;;;0.40;0.40;;;7.00;73.20;;;;;;5033269;28;20659;-72
2022/01/29 09:19:26;;;;;;;0.50;0.50;;;8.50;69.50;;;;;;5034707;28;20621;-73
2022/01/29 09:21:52;;;;;;;0.40;0.40;;;9.40;64.90;;;;;;5033870;28;20169;-69
2022/01/29 09:24:17;;;;;;;0.40;0.40;;;11.20;59.50;;;;;;5034584;28;20543;-73
2022/01/29 09:26:43;;;;;;;0.37;0.37;;;12.80;55.00;;;;;;5034655;28;20167;-74
2022/01/29 09:29:08;;;;;;;0.30;0.30;;;13.80;51.30;;;;;;5034601;28;20174;-73
2022/01/29 09:31:34;;;;;;;0.30;0.30;;;15.10;47.80;;;;;;5034687;28;20177;-71
2022/01/29 09:34:00;;;;;;;0.40;0.40;;;15.50;44.90;;;;;;5033853;28;20713;-72
2022/01/29 09:36:25;;;;;;;0.30;0.30;;;16.60;43.50;;;;;;5034323;28;20162;-72
2022/01/29 09:38:51;;;;;;;0.40;0.40;;;17.10;40.40;;;;;;5032086;28;20668;-71
2022/01/29 09:41:19;;;;;;;0.30;0.30;;;15.20;41.00;;;;;;5033541;28;20167;-69
2022/01/29 09:43:46;;;;;;;0.30;0.30;;;13.70;42.70;;;;;;5034672;28;20183;-70
2022/01/29 09:46:16;;;;;;;0.35;0.35;;;12.90;45.20;;;;;;5033383;28;20174;-74
2022/01/29 09:48:43;;;;;;;0.40;0.40;;;13.10;45.30;;;;;;5034088;28;20166;-70
2022/01/29 09:51:12;;;;;;;0.40;0.40;;;14.10;44.60;;;;;;5034323;28;20413;-69
2022/01/29 09:53:39;;;;;;;0.50;0.50;;;14.70;42.30;;;;;;5034132;28;20546;-71
2022/01/29 09:56:05;;;;;;;0.30;0.30;;;15.10;41.90;;;;;;5034794;28;20413;-73
2022/01/29 09:58:31;;;;;;;0.40;0.40;;;16.00;41.00;;;;;;5033811;28;20409;-68
2022/01/29 10:00:57;;;;;;;0.30;0.30;;;16.80;39.70;;;;;;5033867;28;20496;-69
2022/01/29 10:03:23;;;;;;;0.37;0.37;;;18.00;37.70;;;;;;5033836;28;20183;-69
2022/01/29 10:05:51;;;;;;;0.40;0.40;;;18.30;36.90;;;;;;5034323;28;20410;-79
2022/01/29 10:08:17;;;;;;;0.30;0.30;;;18.60;35.80;;;;;;5034128;28;20699;-69
2022/01/29 10:11:04;;;;;;;0.30;0.30;;;19.00;35.10;;;;;;5034365;28;20397;-72
2022/01/29 10:13:38;;;;;;;0.47;0.47;;;18.60;34.70;;;;;;5033859;28;20474;-71
2022/01/29 10:16:15;;;;;;;0.30;0.30;;;17.80;35.90;;;;;;5033922;28;20399;-71
2022/01/29 10:18:45;;;;;;;0.30;0.30;;;16.80;36.40;;;;;;5033679;28;20436;-75
2022/01/29 10:21:17;;;;;;;0.30;0.30;;;15.60;37.40;;;;;;5034323;28;20453;-72
2022/01/29 10:23:44;;;;;;;0.30;0.30;;;15.00;38.90;;;;;;5033819;28;20444;-71
2022/01/29 10:26:10;;;;;;;0.40;0.40;;;14.50;40.10;;;;;;5034098;28;20414;-70
2022/01/29 10:28:38;;;;;;;0.30;0.30;;;14.70;40.50;;;;;;5033743;28;20410;-70
2022/01/29 10:31:06;;;;;;;0.40;0.40;;;15.00;39.60;;;;;;5034012;28;20402;-70
2022/01/29 10:33:33;;;;;;;0.30;0.30;;;15.70;39.50;;;;;;5033785;28;20882;-72
2022/01/29 10:36:01;;;;;;;0.30;0.30;;;16.40;37.50;;;;;;5032852;28;20484;-72
2022/01/29 10:38:31;;;;;;;0.30;0.30;;;16.10;37.40;;;;;;5032207;28;20489;-72
2022/01/29 10:41:25;;;;;;;0.30;0.30;;;15.20;38.80;;;;;;5033882;28;20401;-72
2022/01/29 10:44:19;;;;;;;0.30;0.30;;;14.80;40.40;;;;;;5033530;28;20479;-69
2022/01/29 10:46:52;;;;;;;0.30;0.30;;;14.90;40.50;;;;;;5033785;28;20724;-69
2022/01/29 10:49:27;;;;;;;0.30;0.30;;;15.30;40.10;;;;;;5033643;28;20400;-70
2022/01/29 10:51:55;;;;;;;0.30;0.30;;;15.70;40.10;;;;;;5033513;28;20488;-69
2022/01/29 10:54:21;;;;;;;0.40;0.40;;;14.80;40.10;;;;;;5033407;28;20456;-69
2022/01/29 10:56:58;;;;;;;0.30;0.30;;;13.80;41.60;;;;;;5033801;28;20412;-69
2022/01/29 10:59:26;;;;;;;0.30;0.30;;;12.70;43.40;;;;;;5033526;28;20389;-69
2022/01/29 11:01:54;;;;;;;0.40;0.40;;;11.90;45.70;;;;;;5031799;28;20174;-69
2022/01/29 11:04:20;;;;;;;0.30;0.30;;;10.80;46.80;;;;;;5031560;28;20201;-69
2022/01/29 11:06:48;;;;;;;0.30;0.30;;;10.40;48.70;;;;;;5032493;28;20182;-69
2022/01/29 11:09:14;;;;;;;0.40;0.40;;;9.50;51.20;;;;;;5031832;28;20175;-68
2022/01/29 11:11:40;;;;;;;0.30;0.30;;;8.80;53.10;;;;;;5033154;28;20185;-69
2022/01/29 11:14:07;;;;;;;0.30;0.30;;;8.20;53.80;;;;;;5032979;28;20211;-68
2022/01/29 11:16:34;;;;;;;0.30;0.30;;;7.70;55.60;;;;;;5032326;28;20169;-68
2022/01/29 11:19:00;;;;;;;0.30;0.30;;;7.50;56.60;;;;;;5033144;28;20259;-67
2022/01/29 11:21:26;;;;;;;0.40;0.40;;;7.60;57.20;;;;;;5032155;28;20605;-67
2022/01/29 11:23:53;;;;;;;0.40;0.40;;;7.20;57.80;;;;;;5030877;28;20443;-69
2022/01/29 11:26:19;;;;;;;0.40;0.40;;;7.20;59.10;;;;;;5033137;28;20656;-70
2022/01/29 11:28:49;;;;;;;0.38;0.38;;;7.10;59.20;;;;;;5031938;28;20205;-76
2022/01/29 11:31:19;;;;;;;0.40;0.40;;;7.20;60.30;;;;;;5032210;28;20213;-71
2022/01/29 11:33:59;;;;;;;0.35;0.35;;;7.10;61.80;;;;;;5032230;28;20585;-71
2022/01/29 11:36:48;;;;;;;0.32;0.32;;;7.20;63.50;;;;;;5031487;28;20171;-71
2022/01/29 11:39:28;;;;;;;0.35;0.35;;;6.90;63.10;;;;;;5032110;28;20167;-71
2022/01/29 11:42:13;;;;;;;0.40;0.40;;;6.70;64.10;;;;;;5032475;28;20175;-68
2022/01/29 11:44:40;;;;;;;0.30;0.30;;;6.40;66.50;;;;;;5032517;28;20245;-73
2022/01/29 11:47:27;;;;;;;0.40;0.40;;;6.50;67.90;;;;;;5032583;28;20178;-70
2022/01/29 11:50:13;;;;;;;0.32;0.32;;;6.50;67.70;;;;;;5037079;28;20217;-70
2022/01/29 11:52:57;;;;;;;0.40;0.40;;;6.40;68.60;;;;;;5036901;28;20225;-70
2022/01/29 11:55:53;;;;;;;0.32;0.32;;;6.60;69.00;;;;;;5036669;28;20729;-70
2022/01/29 11:58:27;;;;;;;0.40;0.40;;;6.90;68.80;;;;;;5031843;28;20633;-70
2022/01/29 12:00:55;;;;;;;0.40;0.40;;;7.20;67.10;;;;;;5036648;28;20174;-69
2022/01/29 12:03:34;;;;;;;0.38;0.38;;;7.30;66.50;;;;;;5036694;28;20609;-69
2022/01/29 12:06:24;;;;;;;0.30;0.30;;;7.50;66.50;;;;;;5036447;28;20544;-70
2022/01/29 12:09:00;;;;;;;0.38;0.38;;;7.80;65.60;;;;;;5036364;28;20254;-74
2022/01/29 12:11:25;;;;;;;0.40;0.40;;;8.10;64.10;;;;;;5036763;28;20193;-71
2022/01/29 12:14:12;;;;;;;0.37;0.37;;;8.20;63.70;;;;;;5034166;28;20824;-70
2022/01/29 12:16:54;;;;;;;0.32;0.32;;;8.30;63.00;;;;;;5035052;28;20182;-69
2022/01/29 12:19:43;;;;;;;0.40;0.40;;;8.00;63.40;;;;;;5035942;28;20599;-74
2022/01/29 12:22:12;;;;;;;0.40;0.40;;;7.80;63.90;;;;;;5036598;28;20172;-70
2022/01/29 12:24:39;;;;;;;0.40;0.40;;;7.50;65.50;;;;;;5035991;28;20252;-71
2022/01/29 12:27:06;;;;;;;0.30;0.30;;;7.50;65.70;;;;;;5036195;28;20171;-70
2022/01/29 12:29:32;;;;;;;0.40;0.40;;;7.50;66.20;;;;;;5035743;28;20543;-71
2022/01/29 12:31:58;;;;;;;0.40;0.40;;;7.50;65.60;;;;;;5036446;28;20168;-70
2022/01/29 12:34:25;;;;;;;0.40;0.40;;;7.60;66.60;;;;;;5035455;28;20486;-70
2022/01/29 12:37:15;;;;;;;0.30;0.30;;;7.70;66.10;;;;;;5035654;28;20182;-71
2022/01/29 12:39:42;;;;;;;0.30;0.30;;;7.70;65.50;;;;;;5034572;28;20653;-69
2022/01/29 12:42:16;;;;;;;0.40;0.40;;;7.60;66.20;;;;;;5035667;28;20178;-70
2022/01/29 12:44:54;;;;;;;0.40;0.40;;;7.50;67.20;;;;;;5033832;28;20192;-71
2022/01/29 12:47:31;;;;;;;0.40;0.40;;;7.50;67.60;;;;;;5033850;28;20178;-71
2022/01/29 12:49:57;;;;;;;0.40;0.40;;;7.50;67.90;;;;;;5034964;28;20180;-72
2022/01/29 12:52:23;;;;;;;0.40;0.40;;;7.50;68.00;;;;;;5035243;28;20175;-70
2022/01/29 12:54:58;;;;;;;0.40;0.40;;;7.40;67.80;;;;;;5035150;28;20737;-70
2022/01/29 12:57:25;;;;;;;0.30;0.30;;;7.30;67.80;;;;;;5033803;28;20185;-71
2022/01/29 12:59:50;;;;;;;0.40;0.40;;;7.30;68.40;;;;;;5034013;28;20175;-72
2022/01/29 13:02:16;;;;;;;0.40;0.40;;;7.20;68.30;;;;;;5035183;28;20221;-71
2022/01/29 13:04:46;;;;;;;0.40;0.40;;;7.10;68.90;;;;;;5034952;28;20187;-70
2022/01/29 13:07:13;;;;;;;0.30;0.30;;;7.10;69.80;;;;;;5035199;28;20191;-70